createdAt,value
2022-10-04T00:00:00.947Z,7.55
2022-10-04T00:01:10.188Z,7.70
2022-10-04T00:02:24.301Z,7.80
2022-10-04T00:03:30.908Z,7.32
2022-10-04T00:04:42.815Z,7.80
2022-10-04T00:05:50.472Z,7.40
2022-10-04T00:06:59.626Z,8.10
2022-10-04T00:08:07.692Z,6.63
2022-10-04T00:09:16.119Z,7.35
2022-10-04T00:10:21.849Z,7.00
2022-10-04T00:11:26.590Z,7.25
2022-10-04T00:12:34.453Z,7.40
2022-10-04T00:13:38.045Z,8.23
2022-10-04T00:14:44.236Z,6.30
2022-10-04T00:15:51.428Z,7.20
2022-10-04T00:16:54.190Z,7.75
2022-10-04T00:18:03.664Z,7.70
2022-10-04T00:19:42.200Z,8.10
2022-10-04T00:20:58.689Z,8.75
2022-10-04T00:22:22.114Z,7.22
2022-10-04T00:23:29.900Z,7.43
2022-10-04T00:24:35.019Z,7.80
2022-10-04T00:25:36.779Z,7.28
2022-10-04T00:27:19.937Z,7.78
2022-10-04T00:28:42.659Z,7.47
2022-10-04T00:29:51.178Z,8.15
2022-10-04T00:31:10.677Z,7.28
2022-10-04T00:32:28.344Z,7.40
2022-10-04T00:33:36.858Z,7.95
2022-10-04T00:34:48.105Z,7.32
2022-10-04T00:35:50.792Z,8.30
2022-10-04T00:36:54.806Z,8.07
2022-10-04T00:37:58.358Z,8.80
2022-10-04T00:39:15.263Z,8.00
2022-10-04T00:40:21.012Z,8.00
2022-10-04T00:41:23.628Z,8.15
2022-10-04T00:42:48.990Z,8.40
2022-10-04T00:43:51.877Z,8.27
2022-10-04T00:45:00.171Z,8.10
2022-10-04T00:46:05.864Z,8.05
2022-10-04T00:52:00.741Z,8.10
2022-10-04T00:53:11.933Z,7.97
2022-10-04T00:54:19.856Z,8.00
2022-10-04T00:55:28.822Z,7.70
2022-10-04T00:56:38.601Z,7.32
2022-10-04T00:57:45.376Z,7.43
2022-10-04T00:59:11.007Z,7.70
2022-10-04T01:00:15.758Z,7.40
2022-10-04T01:01:25.106Z,7.97
2022-10-04T01:02:30.903Z,7.68
2022-10-04T01:03:37.480Z,7.80
2022-10-04T01:04:43.779Z,8.15
2022-10-04T01:05:50.651Z,7.95
2022-10-04T01:06:53.212Z,7.30
2022-10-04T01:12:53.832Z,7.15
2022-10-04T01:13:58.586Z,7.28
2022-10-04T01:15:08.354Z,8.85
2022-10-04T01:16:16.117Z,7.40
2022-10-04T01:17:17.793Z,7.05
2022-10-04T01:18:30.727Z,7.70
2022-10-04T01:19:32.622Z,6.50
2022-10-04T01:20:38.347Z,7.05
2022-10-04T01:21:40.524Z,7.45
2022-10-04T01:22:51.210Z,7.32
2022-10-04T01:23:53.824Z,7.15
2022-10-04T01:24:56.392Z,7.80
2022-10-04T01:25:58.903Z,7.47
2022-10-04T01:27:01.872Z,6.88
2022-10-04T01:28:03.522Z,7.78
2022-10-04T01:29:09.978Z,7.00
2022-10-04T01:30:15.513Z,8.00
2022-10-04T01:31:17.189Z,7.90
2022-10-04T01:32:19.830Z,7.38
2022-10-04T01:33:21.478Z,7.13
2022-10-04T01:34:27.063Z,7.18
2022-10-04T01:35:28.794Z,7.15
2022-10-04T01:36:32.070Z,7.63
2022-10-04T01:37:34.735Z,7.70
2022-10-04T01:38:37.834Z,7.30
2022-10-04T01:39:40.333Z,6.88
2022-10-04T01:40:46.569Z,6.90
2022-10-04T01:41:56.557Z,6.95
2022-10-04T01:43:05.860Z,7.20
2022-10-04T01:44:12.910Z,7.40
2022-10-04T01:45:22.318Z,8.45
2022-10-04T01:46:28.244Z,7.18
2022-10-04T01:47:37.879Z,7.53
2022-10-04T01:48:44.583Z,7.53
2022-10-04T01:49:48.756Z,7.43
2022-10-04T01:50:56.307Z,8.20
2022-10-04T01:52:04.253Z,7.20
2022-10-04T01:53:16.748Z,7.40
2022-10-04T01:54:23.982Z,8.52
2022-10-04T01:55:30.584Z,6.72
2022-10-04T01:56:38.984Z,7.72
2022-10-04T01:57:47.536Z,6.70
2022-10-04T01:58:52.259Z,6.72
2022-10-04T02:00:02.636Z,7.82
2022-10-04T02:01:10.623Z,7.32
2022-10-04T02:02:23.035Z,7.45
2022-10-04T02:03:31.016Z,8.65
2022-10-04T02:04:38.015Z,6.97
2022-10-04T02:05:44.606Z,7.68
2022-10-04T02:06:54.007Z,7.30
2022-10-04T02:12:48.120Z,6.70
2022-10-04T02:13:53.382Z,7.15
2022-10-04T02:14:58.002Z,7.32
2022-10-04T02:16:02.647Z,6.90
2022-10-04T02:17:10.317Z,7.32
2022-10-04T02:18:14.734Z,7.28
2022-10-04T02:19:17.914Z,7.20
2022-10-04T02:20:26.687Z,7.10
2022-10-04T02:21:30.623Z,7.38
2022-10-04T02:22:32.281Z,7.32
2022-10-04T02:23:38.093Z,8.10
2022-10-04T02:24:44.283Z,7.82
2022-10-04T02:25:46.942Z,6.97
2022-10-04T02:26:52.420Z,7.80
2022-10-04T02:27:57.150Z,7.30
2022-10-04T02:28:58.857Z,6.93
2022-10-04T02:30:02.837Z,7.78
2022-10-04T02:31:25.385Z,6.60
2022-10-04T02:32:47.898Z,7.85
2022-10-04T02:33:51.817Z,7.57
2022-10-04T02:34:56.031Z,7.93
2022-10-04T02:35:58.431Z,8.48
2022-10-04T02:37:03.991Z,8.40
2022-10-04T02:38:14.629Z,8.18
2022-10-04T02:39:21.604Z,7.18
2022-10-04T02:40:28.872Z,7.88
2022-10-04T02:41:35.647Z,7.57
2022-10-04T02:42:40.025Z,7.53
2022-10-04T02:43:51.460Z,7.55
2022-10-04T02:45:00.123Z,7.03
2022-10-04T02:46:10.922Z,7.85
2022-10-04T02:47:16.239Z,7.57
2022-10-04T02:48:33.025Z,7.22
2022-10-04T02:49:38.040Z,7.22
2022-10-04T02:50:47.158Z,7.93
2022-10-04T02:51:53.862Z,7.15
2022-10-04T02:53:02.241Z,6.55
2022-10-04T02:54:10.815Z,7.45
2022-10-04T02:55:21.568Z,7.32
2022-10-04T02:56:25.206Z,7.68
2022-10-04T02:57:28.224Z,7.60
2022-10-04T03:11:04.327Z,7.35
2022-10-04T03:12:06.352Z,8.02
2022-10-04T03:17:51.148Z,7.10
2022-10-04T03:18:55.595Z,7.10
2022-10-04T03:19:58.675Z,7.55
2022-10-04T03:21:02.374Z,6.93
2022-10-04T03:22:09.530Z,6.50
2022-10-04T03:23:13.541Z,7.38
2022-10-04T03:24:20.914Z,7.95
2022-10-04T03:25:28.355Z,6.65
2022-10-04T03:26:37.926Z,7.43
2022-10-04T03:27:39.814Z,7.13
2022-10-04T03:28:42.629Z,7.57
2022-10-04T03:29:44.674Z,7.85
2022-10-04T03:30:48.941Z,7.63
2022-10-04T03:31:54.125Z,7.88
2022-10-04T03:32:57.067Z,7.07
2022-10-04T03:33:59.029Z,7.40
2022-10-04T03:35:05.338Z,6.75
2022-10-04T03:36:13.180Z,7.60
2022-10-04T03:37:19.196Z,7.68
2022-10-04T03:38:23.602Z,7.60
2022-10-04T03:39:30.792Z,7.60
2022-10-04T03:40:34.619Z,7.60
2022-10-04T03:41:39.830Z,7.30
2022-10-04T03:42:42.623Z,6.53
2022-10-04T03:43:46.497Z,7.35
2022-10-04T03:44:52.151Z,7.07
2022-10-04T03:45:55.337Z,7.35
2022-10-04T03:46:58.401Z,6.90
2022-10-04T03:48:05.513Z,7.05
2022-10-04T03:49:09.380Z,7.28
2022-10-04T03:50:16.519Z,7.03
2022-10-04T03:51:21.944Z,7.15
2022-10-04T03:52:26.063Z,8.65
2022-10-04T03:53:32.691Z,7.75
2022-10-04T03:54:36.035Z,7.20
2022-10-04T03:55:43.181Z,6.70
2022-10-04T03:56:47.018Z,7.00
2022-10-04T03:57:49.734Z,7.32
2022-10-04T03:58:52.203Z,7.32
2022-10-04T03:59:55.119Z,7.22
2022-10-04T04:01:20.083Z,7.05
2022-10-04T04:02:33.680Z,7.55
2022-10-04T04:03:46.823Z,7.85
2022-10-04T04:05:00.757Z,7.18
2022-10-04T04:06:07.757Z,7.55
2022-10-04T04:07:14.104Z,7.85
2022-10-04T04:08:24.175Z,7.35
2022-10-04T04:09:36.992Z,7.22
2022-10-04T04:10:42.427Z,7.38
2022-10-04T04:11:50.581Z,7.32
2022-10-04T04:12:57.051Z,7.18
2022-10-04T04:14:05.060Z,7.85
2022-10-04T04:15:11.531Z,7.70
2022-10-04T04:16:14.687Z,8.10
2022-10-04T04:17:35.674Z,8.68
2022-10-04T04:18:41.847Z,7.32
2022-10-04T04:19:46.146Z,7.35
2022-10-04T04:20:49.609Z,6.90
2022-10-04T04:21:56.312Z,7.28
2022-10-04T04:23:01.762Z,7.20
2022-10-04T04:24:09.519Z,7.05
2022-10-04T04:25:15.999Z,7.45
2022-10-04T04:26:26.174Z,7.10
2022-10-04T04:27:33.313Z,6.88
2022-10-04T04:28:42.287Z,8.15
2022-10-04T04:29:48.395Z,6.28
2022-10-04T04:30:54.163Z,7.30
2022-10-04T04:32:01.047Z,6.47
2022-10-04T04:33:11.073Z,7.63
2022-10-04T04:34:19.626Z,6.45
2022-10-04T04:35:24.765Z,7.53
2022-10-04T04:36:27.809Z,6.95
2022-10-04T04:37:30.286Z,7.07
2022-10-04T04:38:32.690Z,7.20
2022-10-04T04:39:34.383Z,6.05
2022-10-04T04:40:37.945Z,7.00
2022-10-04T04:41:41.085Z,7.32
2022-10-04T04:42:45.600Z,6.85
2022-10-04T04:43:47.240Z,8.43
2022-10-04T04:44:52.063Z,7.13
2022-10-04T04:46:08.883Z,6.45
2022-10-04T04:47:29.766Z,6.53
2022-10-04T04:48:31.937Z,7.03
2022-10-04T04:49:39.682Z,6.60
2022-10-04T04:50:41.790Z,6.97
2022-10-04T04:51:50.772Z,6.65
2022-10-04T04:52:55.454Z,6.50
2022-10-04T04:54:04.795Z,7.10
2022-10-04T04:55:16.335Z,6.00
2022-10-04T04:56:20.033Z,7.93
2022-10-04T04:57:22.944Z,7.13
2022-10-04T04:58:32.855Z,6.85
2022-10-04T04:59:37.034Z,7.50
2022-10-04T05:00:39.643Z,7.35
2022-10-04T05:01:45.935Z,7.35
2022-10-04T05:02:58.641Z,6.72
2022-10-04T05:04:03.139Z,6.60
2022-10-04T05:05:19.124Z,7.00
2022-10-04T05:06:27.134Z,7.35
2022-10-04T05:07:29.473Z,7.32
2022-10-04T05:08:40.974Z,7.20
2022-10-04T05:09:43.023Z,7.22
2022-10-04T05:10:55.413Z,8.50
2022-10-04T05:12:07.529Z,8.13
2022-10-04T05:13:12.009Z,7.70
2022-10-04T05:14:17.666Z,7.22
2022-10-04T05:15:20.288Z,9.85
2022-10-04T05:16:27.201Z,7.63
2022-10-04T05:17:35.510Z,7.50
2022-10-04T05:18:37.161Z,6.45
2022-10-04T05:19:41.067Z,7.25
2022-10-04T05:20:49.525Z,6.80
2022-10-04T05:21:55.396Z,7.20
2022-10-04T05:27:46.283Z,8.05
2022-10-04T05:28:47.888Z,7.38
2022-10-04T05:30:01.630Z,6.82
2022-10-04T05:31:31.624Z,6.70
2022-10-04T05:32:47.694Z,6.65
2022-10-04T05:33:51.540Z,7.95
2022-10-04T05:34:54.451Z,7.50
2022-10-04T05:36:21.943Z,7.38
2022-10-04T05:37:39.984Z,7.72
2022-10-04T05:38:50.637Z,8.05
2022-10-04T05:40:05.758Z,7.80
2022-10-04T05:41:14.273Z,6.95
2022-10-04T05:42:23.218Z,7.20
2022-10-04T05:43:35.352Z,6.50
2022-10-04T05:44:47.280Z,7.93
2022-10-04T05:46:22.627Z,7.88
2022-10-04T05:47:28.964Z,8.85
2022-10-04T05:48:30.607Z,8.85
2022-10-04T05:49:38.818Z,7.68
2022-10-04T05:50:43.637Z,6.82
2022-10-04T05:51:51.297Z,8.60
2022-10-04T05:59:04.434Z,8.55
2022-10-04T06:02:55.761Z,8.80
2022-10-04T06:04:14.489Z,8.38
2022-10-04T06:05:28.190Z,9.18
2022-10-04T06:06:39.351Z,8.07
2022-10-04T06:12:44.550Z,8.20
2022-10-04T06:14:18.967Z,8.40
2022-10-04T06:15:41.875Z,8.60
2022-10-04T06:16:58.814Z,8.13
2022-10-04T06:18:18.437Z,8.43
2022-10-04T06:19:46.682Z,7.70
2022-10-04T06:21:05.841Z,8.07
2022-10-04T06:22:17.522Z,7.68
2022-10-04T06:23:21.049Z,7.95
2022-10-04T06:24:28.298Z,8.63
2022-10-04T06:25:34.250Z,9.75
2022-10-04T06:26:43.642Z,8.00
2022-10-04T06:27:49.520Z,7.93
2022-10-04T06:28:57.077Z,8.43
2022-10-04T06:30:02.682Z,7.97
2022-10-04T06:31:42.718Z,7.95
2022-10-04T06:33:02.230Z,8.40
2022-10-04T06:34:25.868Z,8.13
2022-10-04T06:36:06.493Z,7.80
2022-10-04T06:37:28.314Z,7.32
2022-10-04T06:39:04.121Z,8.27
2022-10-04T06:40:31.480Z,8.30
2022-10-04T06:41:56.475Z,7.57
2022-10-04T06:43:12.626Z,7.90
2022-10-04T06:44:53.743Z,9.45
2022-10-04T06:46:08.048Z,7.53
2022-10-04T06:47:25.167Z,8.50
2022-10-04T06:49:00.242Z,7.93
2022-10-04T06:50:22.195Z,8.85
2022-10-04T06:51:37.510Z,8.98
2022-10-04T06:52:59.341Z,9.10
2022-10-04T06:54:13.806Z,8.80
2022-10-04T06:55:41.112Z,8.63
2022-10-04T06:57:11.648Z,8.73
2022-10-04T06:58:41.348Z,8.50
2022-10-04T07:00:02.827Z,8.48
2022-10-04T07:01:23.491Z,8.23
2022-10-04T07:02:30.943Z,8.20
2022-10-04T07:03:39.684Z,8.23
2022-10-04T07:05:07.497Z,8.52
2022-10-04T07:06:12.362Z,9.25
2022-10-04T07:07:35.409Z,10.10
2022-10-04T07:08:43.045Z,7.50
2022-10-04T07:09:46.476Z,7.93
2022-10-04T07:10:55.333Z,8.50
2022-10-04T07:12:03.992Z,8.30
2022-10-04T07:14:21.410Z,9.98
2022-10-04T07:15:29.549Z,8.38
2022-10-04T07:17:46.735Z,8.73
2022-10-04T07:19:00.535Z,8.80
2022-10-04T07:20:05.380Z,8.73
2022-10-04T07:21:12.703Z,8.93
2022-10-04T07:22:22.473Z,8.55
2022-10-04T07:23:28.849Z,9.25
2022-10-04T07:24:47.226Z,8.45
2022-10-04T07:25:52.396Z,8.05
2022-10-04T07:26:56.414Z,8.70
2022-10-04T07:28:21.780Z,7.78
2022-10-04T07:29:27.620Z,10.32
2022-10-04T07:30:39.552Z,8.23
2022-10-04T07:31:42.820Z,8.13
2022-10-04T07:32:47.635Z,8.63
2022-10-04T07:33:53.177Z,8.70
2022-10-04T07:35:02.954Z,7.70
2022-10-04T07:36:09.563Z,8.35
2022-10-04T07:37:15.089Z,8.30
2022-10-04T07:38:24.457Z,9.55
2022-10-04T07:39:31.155Z,9.38
2022-10-04T07:40:36.682Z,8.60
2022-10-04T07:41:48.937Z,7.85
2022-10-04T07:42:59.667Z,10.65
2022-10-04T07:44:04.890Z,9.80
2022-10-04T07:45:15.178Z,8.48
2022-10-04T07:46:24.526Z,7.63
2022-10-04T07:47:29.399Z,8.20
2022-10-04T07:48:30.979Z,9.60
2022-10-04T07:49:39.360Z,7.57
2022-10-04T07:50:49.929Z,8.50
2022-10-04T07:52:33.036Z,9.20
2022-10-04T07:53:47.661Z,8.20
2022-10-04T07:54:58.001Z,9.05
2022-10-04T07:56:07.560Z,8.98
2022-10-04T07:57:18.944Z,9.88
2022-10-04T07:58:42.096Z,9.05
2022-10-04T07:59:57.932Z,9.43
2022-10-04T08:01:03.533Z,8.80
2022-10-04T08:02:18.846Z,8.65
2022-10-04T08:03:33.130Z,9.50
2022-10-04T08:04:46.640Z,8.88
2022-10-04T08:05:54.016Z,8.88
2022-10-04T08:12:07.124Z,7.97
2022-10-04T08:13:20.407Z,8.60
2022-10-04T08:14:35.656Z,9.93
2022-10-04T08:15:40.131Z,9.48
2022-10-04T08:16:58.324Z,7.90
2022-10-04T08:18:17.895Z,8.13
2022-10-04T08:19:38.141Z,8.63
2022-10-04T08:20:49.105Z,8.88
2022-10-04T08:22:00.242Z,9.10
2022-10-04T08:23:13.892Z,9.55
2022-10-04T08:24:24.790Z,11.70
2022-10-04T08:25:32.784Z,10.00
2022-10-04T08:26:45.170Z,7.70
2022-10-04T08:28:22.208Z,8.73
2022-10-04T08:29:47.630Z,8.55
2022-10-04T08:31:13.421Z,9.00
2022-10-04T08:32:31.023Z,8.50
2022-10-04T08:33:48.086Z,9.65
2022-10-04T08:35:16.145Z,8.73
2022-10-04T08:36:29.875Z,8.40
2022-10-04T08:37:40.809Z,8.55
2022-10-04T08:38:48.721Z,8.68
2022-10-04T08:40:23.947Z,9.27
2022-10-04T08:41:56.030Z,9.25
2022-10-04T08:43:25.482Z,8.63
2022-10-04T08:45:12.068Z,9.10
2022-10-04T08:46:53.160Z,10.95
2022-10-04T08:48:32.818Z,9.63
2022-10-04T08:50:06.601Z,9.68
2022-10-04T08:51:36.693Z,8.73
2022-10-04T08:53:16.272Z,9.27
2022-10-04T08:54:51.996Z,9.05
2022-10-04T08:56:11.477Z,9.48
2022-10-04T08:57:26.563Z,9.48
2022-10-04T08:58:52.815Z,9.45
2022-10-04T09:00:22.224Z,8.65
2022-10-04T09:01:45.726Z,7.85
2022-10-04T09:03:24.133Z,8.80
2022-10-04T09:04:51.912Z,8.68
2022-10-04T09:06:04.572Z,7.82
2022-10-04T09:07:40.912Z,8.63
2022-10-04T09:09:21.015Z,9.15
2022-10-04T09:10:35.458Z,9.85
2022-10-04T09:12:03.514Z,8.45
2022-10-04T09:13:30.852Z,9.73
2022-10-04T09:14:52.077Z,9.27
2022-10-04T09:15:56.519Z,9.50
2022-10-04T09:17:21.238Z,9.30
2022-10-04T09:18:49.610Z,9.23
2022-10-04T09:20:14.033Z,9.30
2022-10-04T09:21:37.042Z,8.52
2022-10-04T09:22:50.130Z,7.60
2022-10-04T09:24:17.816Z,8.85
2022-10-04T09:25:35.550Z,9.07
2022-10-04T09:26:46.003Z,8.77
2022-10-04T09:28:10.064Z,9.07
2022-10-04T09:29:42.851Z,8.90
2022-10-04T09:31:00.234Z,9.40
2022-10-04T09:32:37.280Z,8.68
2022-10-04T09:33:56.526Z,8.70
2022-10-04T09:35:34.033Z,8.07
2022-10-04T09:37:29.148Z,8.35
2022-10-04T09:39:28.407Z,7.63
2022-10-04T09:40:58.427Z,9.30
2022-10-04T09:42:36.180Z,7.95
2022-10-04T09:44:17.353Z,8.77
2022-10-04T09:45:53.336Z,8.15
2022-10-04T09:47:37.750Z,9.70
2022-10-04T09:48:46.554Z,8.98
2022-10-04T09:50:26.564Z,8.80
2022-10-04T09:52:01.728Z,9.80
2022-10-04T09:53:30.143Z,8.38
2022-10-04T09:54:58.535Z,8.52
2022-10-04T09:56:41.379Z,7.97
2022-10-04T09:58:07.390Z,8.45
2022-10-04T09:59:24.750Z,8.10
2022-10-04T10:00:33.777Z,8.88
2022-10-04T10:01:44.826Z,8.77
2022-10-04T10:02:59.983Z,8.95
2022-10-04T10:04:38.416Z,9.05
2022-10-04T10:06:04.518Z,8.00
2022-10-04T10:07:39.654Z,9.07
2022-10-04T10:08:56.063Z,7.38
2022-10-04T10:10:26.334Z,7.35
2022-10-04T10:11:54.622Z,7.15
2022-10-04T10:13:43.230Z,7.20
2022-10-04T10:15:16.532Z,8.40
2022-10-04T10:16:42.012Z,8.55
2022-10-04T10:17:54.284Z,8.60
2022-10-04T10:19:13.000Z,6.70
2022-10-04T10:20:36.276Z,8.20
2022-10-04T10:21:53.981Z,6.80
2022-10-04T10:23:21.011Z,8.50
2022-10-04T10:24:44.995Z,7.10
2022-10-04T10:26:08.020Z,7.10
2022-10-04T10:27:26.442Z,7.97
2022-10-04T10:28:46.509Z,7.88
2022-10-04T10:30:07.091Z,7.75
2022-10-04T10:31:27.138Z,6.95
2022-10-04T10:33:10.648Z,8.68
2022-10-04T10:34:37.140Z,8.70
2022-10-04T10:35:54.153Z,7.63
2022-10-04T10:37:08.934Z,7.60
2022-10-04T10:38:36.014Z,9.55
2022-10-04T10:39:57.687Z,9.02
2022-10-04T10:41:21.351Z,8.10
2022-10-04T10:42:43.683Z,8.02
2022-10-04T10:44:09.759Z,7.93
2022-10-04T10:45:21.118Z,7.35
2022-10-04T10:46:37.788Z,7.20
2022-10-04T10:47:50.881Z,7.00
2022-10-04T10:49:10.488Z,7.15
2022-10-04T10:50:59.229Z,8.10
2022-10-04T10:52:34.029Z,7.03
2022-10-04T10:54:11.414Z,7.55
2022-10-04T10:55:44.662Z,6.38
2022-10-04T10:56:57.199Z,7.60
2022-10-04T10:58:28.485Z,7.10
2022-10-04T11:00:06.428Z,7.18
2022-10-04T11:01:36.392Z,6.70
2022-10-04T11:03:16.502Z,6.95
2022-10-04T11:04:42.128Z,7.03
2022-10-04T11:06:15.277Z,7.03
2022-10-04T11:07:41.952Z,6.93
2022-10-04T11:09:17.345Z,6.63
2022-10-04T11:10:53.385Z,6.25
2022-10-04T11:12:28.018Z,6.75
2022-10-04T11:13:51.487Z,7.07
2022-10-04T11:15:31.552Z,7.53
2022-10-04T11:16:48.102Z,6.70
2022-10-04T11:18:21.820Z,7.05
2022-10-04T11:20:05.425Z,6.47
2022-10-04T11:21:53.440Z,7.15
2022-10-04T11:23:29.708Z,7.00
2022-10-04T11:25:04.923Z,7.55
2022-10-04T11:26:47.836Z,7.40
2022-10-04T11:28:02.371Z,7.93
2022-10-04T11:29:20.504Z,6.50
2022-10-04T11:30:26.147Z,7.90
2022-10-04T11:32:07.162Z,6.65
2022-10-04T11:34:00.637Z,5.88
2022-10-04T11:35:44.341Z,7.30
2022-10-04T11:37:04.697Z,7.82
2022-10-04T11:38:15.808Z,6.82
2022-10-04T11:39:44.669Z,7.05
2022-10-04T11:41:07.218Z,6.75
2022-10-04T11:42:21.200Z,7.10
2022-10-04T11:43:46.458Z,7.50
2022-10-04T11:45:08.743Z,7.50
2022-10-04T11:46:35.867Z,7.20
2022-10-04T11:47:51.282Z,6.70
2022-10-04T11:49:08.187Z,9.20
2022-10-04T11:50:48.176Z,7.93
2022-10-04T11:52:17.589Z,7.50
2022-10-04T11:53:52.561Z,8.15
2022-10-04T11:55:34.100Z,6.72
2022-10-04T11:56:47.363Z,6.60
2022-10-04T11:57:53.988Z,7.40
2022-10-04T11:59:22.730Z,6.90
2022-10-04T12:00:28.983Z,5.88
2022-10-04T12:01:56.146Z,6.78
2022-10-04T12:03:18.746Z,5.90
2022-10-04T12:05:02.931Z,6.10
2022-10-04T12:06:24.274Z,6.30
2022-10-04T12:07:38.111Z,6.85
2022-10-04T12:09:04.683Z,6.85
2022-10-04T12:10:23.011Z,6.40
2022-10-04T12:12:25.719Z,6.20
2022-10-04T12:13:50.496Z,5.25
2022-10-04T12:15:16.451Z,5.68
2022-10-04T12:16:57.579Z,5.85
2022-10-04T12:18:26.344Z,4.90
2022-10-04T12:20:03.796Z,4.65
2022-10-04T12:21:30.442Z,4.60
2022-10-04T12:22:46.858Z,4.78
2022-10-04T12:24:11.661Z,4.60
2022-10-04T12:25:48.187Z,4.95
2022-10-04T12:27:28.541Z,5.40
2022-10-04T12:29:00.725Z,4.68
2022-10-04T12:30:22.777Z,5.10
2022-10-04T12:31:29.713Z,5.07
2022-10-04T12:32:38.746Z,4.65
2022-10-04T12:33:47.667Z,5.10
2022-10-04T12:34:59.548Z,5.40
2022-10-04T12:36:20.642Z,4.60
2022-10-04T12:37:31.004Z,5.18
2022-10-04T12:38:50.652Z,5.70
2022-10-04T12:40:18.861Z,4.55
2022-10-04T12:41:38.075Z,5.70
2022-10-04T12:42:52.576Z,5.40
2022-10-04T12:44:06.127Z,5.03
2022-10-04T12:45:42.526Z,5.35
2022-10-04T12:46:57.959Z,4.55
2022-10-04T12:48:15.527Z,5.50
2022-10-04T12:49:30.230Z,5.40
2022-10-04T12:50:47.753Z,5.80
2022-10-04T12:52:09.046Z,5.25
2022-10-04T12:53:22.837Z,5.45
2022-10-04T12:54:35.554Z,5.30
2022-10-04T12:55:57.290Z,6.93
2022-10-04T12:57:14.559Z,5.30
2022-10-04T12:58:24.730Z,5.97
2022-10-04T12:59:52.070Z,4.82
2022-10-04T13:01:02.616Z,5.15
2022-10-04T13:02:21.118Z,5.97
2022-10-04T13:03:35.845Z,5.60
2022-10-04T13:04:42.206Z,5.72
2022-10-04T13:05:59.327Z,5.20
2022-10-04T13:07:21.069Z,5.90
2022-10-04T13:08:38.536Z,5.28
2022-10-04T13:10:22.624Z,5.20
2022-10-04T13:11:36.405Z,4.82
2022-10-04T13:12:46.983Z,5.63
2022-10-04T13:14:11.293Z,4.13
2022-10-04T13:15:25.918Z,5.68
2022-10-04T13:18:19.996Z,5.80
2022-10-04T13:19:29.877Z,4.90
2022-10-04T13:20:51.805Z,5.53
2022-10-04T13:22:11.369Z,4.63
2022-10-04T13:23:26.221Z,5.22
2022-10-04T13:24:54.864Z,4.60
2022-10-04T13:26:23.411Z,5.30
2022-10-04T13:27:38.279Z,5.40
2022-10-04T13:28:51.249Z,4.60
2022-10-04T13:30:02.230Z,4.78
2022-10-04T13:31:09.691Z,6.32
2022-10-04T13:32:18.531Z,4.82
2022-10-04T13:33:29.940Z,5.63
2022-10-04T13:34:40.703Z,4.82
2022-10-04T13:35:50.925Z,5.60
2022-10-04T13:37:09.742Z,4.27
2022-10-04T13:38:39.593Z,3.63
2022-10-04T13:40:03.150Z,5.03
2022-10-04T13:41:23.901Z,5.40
2022-10-04T13:42:53.620Z,4.70
2022-10-04T13:44:15.180Z,4.70
2022-10-04T13:45:34.718Z,4.20
2022-10-04T13:46:45.802Z,5.23
2022-10-04T13:48:00.741Z,4.60
2022-10-04T13:49:21.017Z,4.70
2022-10-04T13:50:33.863Z,4.57
2022-10-04T13:52:13.755Z,5.07
2022-10-04T13:53:43.461Z,4.80
2022-10-04T13:55:27.666Z,4.65
2022-10-04T13:56:54.737Z,5.60
2022-10-04T13:58:10.891Z,4.40
2022-10-04T13:59:22.870Z,4.70
2022-10-04T14:00:49.780Z,4.68
2022-10-04T14:02:27.749Z,4.67
2022-10-04T14:03:46.453Z,4.73
2022-10-04T14:05:33.923Z,5.50
2022-10-04T14:07:19.991Z,4.40
2022-10-04T14:08:50.702Z,5.13
2022-10-04T14:10:28.550Z,4.50
2022-10-04T14:12:04.300Z,5.35
2022-10-04T14:13:42.958Z,4.25
2022-10-04T14:15:18.760Z,5.20
2022-10-04T14:16:56.133Z,4.13
2022-10-04T14:18:37.901Z,5.30
2022-10-04T14:20:12.410Z,4.70
2022-10-04T14:22:00.978Z,5.50
2022-10-04T14:23:23.206Z,4.83
2022-10-04T14:25:06.643Z,4.50
2022-10-04T14:26:26.256Z,5.00
2022-10-04T14:28:13.773Z,5.03
2022-10-04T14:29:34.806Z,4.70
2022-10-04T14:30:54.113Z,4.50
2022-10-04T14:32:20.276Z,5.40
2022-10-04T14:33:56.597Z,4.80
2022-10-04T14:35:10.751Z,4.97
2022-10-04T14:36:32.893Z,4.78
2022-10-04T14:37:59.208Z,4.10
2022-10-04T14:39:18.711Z,4.10
2022-10-04T14:40:34.510Z,4.37
2022-10-04T14:42:25.169Z,5.20
2022-10-04T14:44:14.234Z,5.40
2022-10-04T14:45:37.625Z,3.97
2022-10-04T14:46:52.517Z,4.70
2022-10-04T14:48:24.281Z,4.63
2022-10-04T14:49:45.927Z,4.50
2022-10-04T14:51:04.976Z,4.83
2022-10-04T14:52:22.589Z,4.65
2022-10-04T14:53:33.367Z,4.68
2022-10-04T14:54:50.880Z,4.80
2022-10-04T14:56:12.614Z,4.23
2022-10-04T14:57:22.742Z,4.55
2022-10-04T14:58:31.945Z,4.23
2022-10-04T14:59:54.982Z,4.60
2022-10-04T15:01:21.556Z,4.50
2022-10-04T15:02:49.292Z,5.28
2022-10-04T15:04:22.575Z,4.10
2022-10-04T15:05:44.219Z,4.17
2022-10-04T15:06:50.596Z,4.70
2022-10-04T15:07:56.881Z,4.93
2022-10-04T15:09:40.845Z,4.90
2022-10-04T15:10:49.299Z,4.80
2022-10-04T15:13:25.264Z,4.30
2022-10-04T15:14:39.056Z,5.20
2022-10-04T15:16:11.406Z,5.10
2022-10-04T15:17:29.142Z,4.33
2022-10-04T15:18:45.102Z,4.77
2022-10-04T15:20:03.036Z,4.90
2022-10-04T15:21:21.219Z,5.10
2022-10-04T15:22:27.327Z,5.50
2022-10-04T15:23:37.818Z,4.90
2022-10-04T15:24:48.850Z,5.60
2022-10-04T15:25:55.103Z,5.40
2022-10-04T15:27:38.143Z,4.47
2022-10-04T15:28:56.739Z,4.77
2022-10-04T15:30:09.912Z,4.80
2022-10-04T15:31:20.964Z,5.30
2022-10-04T15:32:35.592Z,4.63
2022-10-04T15:33:44.817Z,5.20
2022-10-04T15:35:00.045Z,5.30
2022-10-04T15:36:50.094Z,4.60
2022-10-04T15:37:59.812Z,4.10
2022-10-04T15:39:08.139Z,4.53
2022-10-04T15:40:24.355Z,4.60
2022-10-04T15:41:34.623Z,4.53
2022-10-04T15:42:38.229Z,5.30
2022-10-04T15:43:43.194Z,8.57
2022-10-04T15:45:22.466Z,7.37
2022-10-04T15:46:39.639Z,5.63
2022-10-04T15:48:01.675Z,5.57
2022-10-04T15:49:26.715Z,5.10
2022-10-04T15:50:34.076Z,4.70
2022-10-04T15:51:50.444Z,4.67
2022-10-04T15:53:10.356Z,5.63
2022-10-04T15:54:33.822Z,4.87
2022-10-04T15:55:55.763Z,4.70
2022-10-04T15:57:05.230Z,4.30
2022-10-04T15:58:25.064Z,4.70
2022-10-04T15:59:37.310Z,5.67
2022-10-04T16:00:52.917Z,5.70
2022-10-04T16:02:20.379Z,4.97
2022-10-04T16:03:36.044Z,4.67
2022-10-04T16:04:44.729Z,6.00
2022-10-04T16:06:00.110Z,4.77
2022-10-04T16:07:24.397Z,4.80
2022-10-04T16:08:48.476Z,4.77
2022-10-04T16:10:01.092Z,4.97
2022-10-04T16:11:37.693Z,4.80
2022-10-04T16:12:58.711Z,4.60
2022-10-04T16:14:20.019Z,5.00
2022-10-04T16:15:32.108Z,4.20
2022-10-04T16:17:03.846Z,5.03
2022-10-04T16:18:40.351Z,4.73
2022-10-04T16:20:17.920Z,5.47
2022-10-04T16:21:31.573Z,5.07
2022-10-04T16:22:35.134Z,4.37
2022-10-04T16:23:40.000Z,5.30
2022-10-04T16:24:49.800Z,5.07
2022-10-04T16:25:53.410Z,4.90
2022-10-04T16:27:23.494Z,5.30
2022-10-04T16:29:11.844Z,5.03
2022-10-04T16:30:27.404Z,3.90
2022-10-04T16:31:56.826Z,5.80
2022-10-04T16:33:29.253Z,6.13
2022-10-04T16:35:01.532Z,5.70
2022-10-04T16:36:10.752Z,4.90
2022-10-04T16:37:28.608Z,5.00
2022-10-04T16:38:37.203Z,5.23
2022-10-04T16:40:03.416Z,5.20
2022-10-04T16:41:12.765Z,5.23
2022-10-04T16:42:18.163Z,4.50
2022-10-04T16:43:29.112Z,5.40
2022-10-04T16:44:38.400Z,4.83
2022-10-04T16:46:06.108Z,4.87
2022-10-04T16:47:22.480Z,5.80
2022-10-04T16:48:51.777Z,5.97
2022-10-04T16:49:57.150Z,4.97
2022-10-04T16:51:31.435Z,5.60
2022-10-04T16:52:49.042Z,4.50
2022-10-04T16:53:59.344Z,5.37
2022-10-04T16:55:22.318Z,5.30
2022-10-04T16:56:26.546Z,6.43
2022-10-04T16:57:29.947Z,5.57
2022-10-04T16:58:50.817Z,5.20
2022-10-04T16:59:56.608Z,5.70
2022-10-04T17:01:33.990Z,4.77
2022-10-04T17:03:08.855Z,5.20
2022-10-04T17:04:55.332Z,5.05
2022-10-04T17:06:14.100Z,4.65
2022-10-04T17:07:25.122Z,6.50
2022-10-04T17:08:48.045Z,4.67
2022-10-04T17:09:57.770Z,5.90
2022-10-04T17:11:37.493Z,5.20
2022-10-04T17:12:47.390Z,4.97
2022-10-04T17:14:06.158Z,5.57
2022-10-04T17:15:27.411Z,5.07
2022-10-04T17:16:38.910Z,5.33
2022-10-04T17:17:46.475Z,6.05
2022-10-04T17:19:12.796Z,5.00
2022-10-04T17:20:29.416Z,6.20
2022-10-04T17:21:46.157Z,7.33
2022-10-04T17:23:09.300Z,6.33
2022-10-04T17:24:23.020Z,5.90
2022-10-04T17:25:34.367Z,6.13
2022-10-04T17:26:52.494Z,6.43
2022-10-04T17:28:00.371Z,5.95
2022-10-04T17:29:16.162Z,6.23
2022-10-04T17:30:22.595Z,6.28
2022-10-04T17:31:35.265Z,6.40
2022-10-04T17:32:50.011Z,5.85
2022-10-04T17:34:01.772Z,6.00
2022-10-04T17:35:19.028Z,7.93
2022-10-04T17:36:37.586Z,5.40
2022-10-04T17:37:48.649Z,6.63
2022-10-04T17:39:03.078Z,6.60
2022-10-04T17:40:27.467Z,6.63
2022-10-04T17:41:45.365Z,6.20
2022-10-04T17:42:55.778Z,6.82
2022-10-04T17:44:20.558Z,7.43
2022-10-04T17:45:52.732Z,6.43
2022-10-04T17:47:01.488Z,5.65
2022-10-04T17:48:27.195Z,5.45
2022-10-04T17:49:57.099Z,7.28
2022-10-04T17:51:21.638Z,6.05
2022-10-04T17:52:50.509Z,6.05
2022-10-04T17:54:19.827Z,6.00
2022-10-04T17:55:28.600Z,5.73
2022-10-04T17:56:36.731Z,6.30
2022-10-04T17:57:47.203Z,5.78